createdAt,value
2023-05-20T00:01:49.710Z,100.00
2023-05-20T00:04:16.297Z,100.00
2023-05-20T00:06:42.925Z,100.00
2023-05-20T00:09:09.488Z,100.00
2023-05-20T00:11:36.064Z,100.00
2023-05-20T00:14:02.754Z,100.00
2023-05-20T00:16:29.717Z,100.00
2023-05-20T00:18:56.767Z,100.00
2023-05-20T00:21:23.401Z,100.00
2023-05-20T00:23:50.529Z,100.00
2023-05-20T00:26:17.115Z,100.00
2023-05-20T00:28:44.855Z,100.00
2023-05-20T00:31:11.678Z,100.00
2023-05-20T00:33:38.340Z,100.00
2023-05-20T00:36:05.425Z,100.00
2023-05-20T00:38:33.141Z,100.00
2023-05-20T00:40:59.823Z,100.00
2023-05-20T00:43:26.697Z,100.00
2023-05-20T00:45:53.974Z,100.00
2023-05-20T00:48:21.171Z,100.00
2023-05-20T00:50:48.983Z,100.00
2023-05-20T00:53:16.912Z,100.00
2023-05-20T00:55:43.841Z,100.00
2023-05-20T00:58:10.826Z,100.00
2023-05-20T01:00:38.434Z,100.00
2023-05-20T01:03:05.319Z,100.00
2023-05-20T01:05:34.312Z,100.00
2023-05-20T01:08:02.221Z,100.00
2023-05-20T01:10:29.641Z,100.00
2023-05-20T01:13:07.871Z,100.00
2023-05-20T01:15:40.777Z,100.00
2023-05-20T01:18:08.308Z,100.00
2023-05-20T01:20:38.822Z,100.00
2023-05-20T01:23:05.549Z,100.00
2023-05-20T01:25:32.761Z,100.00
2023-05-20T01:27:59.533Z,100.00
2023-05-20T01:30:33.913Z,100.00
2023-05-20T01:33:03.214Z,100.00
2023-05-20T01:35:30.409Z,100.00
2023-05-20T01:37:57.424Z,100.00
2023-05-20T01:40:24.064Z,100.00
2023-05-20T01:42:52.536Z,100.00
2023-05-20T01:45:19.220Z,100.00
2023-05-20T01:47:45.957Z,100.00
2023-05-20T01:50:13.098Z,100.00
2023-05-20T01:52:39.936Z,100.00
2023-05-20T01:55:06.857Z,100.00
2023-05-20T01:57:34.314Z,100.00
2023-05-20T02:00:01.006Z,100.00
2023-05-20T02:02:27.881Z,100.00
2023-05-20T02:04:54.800Z,100.00
2023-05-20T02:07:21.469Z,100.00
2023-05-20T02:09:48.034Z,100.00
2023-05-20T02:12:17.519Z,100.00
2023-05-20T02:14:45.216Z,100.00
2023-05-20T02:17:13.924Z,100.00
2023-05-20T02:19:42.328Z,100.00
2023-05-20T02:22:08.938Z,100.00
2023-05-20T02:24:36.078Z,100.00
2023-05-20T02:27:04.152Z,100.00
2023-05-20T02:29:31.086Z,100.00
2023-05-20T02:31:57.864Z,100.00
2023-05-20T02:34:25.633Z,100.00
2023-05-20T02:36:52.427Z,100.00
2023-05-20T02:39:19.372Z,100.00
2023-05-20T02:41:45.931Z,100.00
2023-05-20T02:44:13.120Z,100.00
2023-05-20T02:46:40.194Z,100.00
2023-05-20T02:49:06.709Z,100.00
2023-05-20T02:51:33.411Z,100.00
2023-05-20T02:53:59.963Z,100.00
2023-05-20T02:56:26.486Z,100.00
2023-05-20T02:58:53.017Z,100.00
2023-05-20T03:01:19.618Z,100.00
2023-05-20T03:03:46.161Z,100.00
2023-05-20T03:06:14.627Z,100.00
2023-05-20T03:08:44.214Z,100.00
2023-05-20T03:11:11.281Z,100.00
2023-05-20T03:13:37.914Z,100.00
2023-05-20T03:16:04.654Z,100.00
2023-05-20T03:18:32.697Z,100.00
2023-05-20T03:20:59.889Z,100.00
2023-05-20T03:23:26.639Z,100.00
2023-05-20T03:25:53.211Z,100.00
2023-05-20T03:28:19.781Z,100.00
2023-05-20T03:30:47.079Z,100.00
2023-05-20T03:33:15.524Z,100.00
2023-05-20T03:35:42.173Z,100.00
2023-05-20T03:38:08.738Z,100.00
2023-05-20T03:40:35.684Z,100.00
2023-05-20T03:43:03.607Z,100.00
2023-05-20T03:45:30.276Z,100.00
2023-05-20T03:48:03.607Z,100.00
2023-05-20T03:50:32.356Z,100.00
2023-05-20T03:53:00.235Z,100.00
2023-05-20T03:55:27.347Z,100.00
2023-05-20T03:57:54.745Z,100.00
2023-05-20T04:00:22.782Z,100.00
2023-05-20T04:02:49.451Z,100.00
2023-05-20T04:05:17.875Z,100.00
2023-05-20T04:07:44.548Z,100.00
2023-05-20T04:10:12.106Z,100.00
2023-05-20T04:12:38.802Z,100.00
2023-05-20T04:15:06.255Z,100.00
2023-05-20T04:17:39.966Z,100.00
2023-05-20T04:20:07.673Z,100.00
2023-05-20T04:22:35.520Z,100.00
2023-05-20T04:25:04.213Z,100.00
2023-05-20T04:27:33.077Z,100.00
2023-05-20T04:30:01.964Z,100.00
2023-05-20T04:32:30.363Z,100.00
2023-05-20T04:34:59.246Z,100.00
2023-05-20T04:37:25.804Z,100.00
2023-05-20T04:39:52.323Z,100.00
2023-05-20T04:42:19.682Z,100.00
2023-05-20T04:44:47.418Z,100.00
2023-05-20T04:47:14.815Z,100.00
2023-05-20T04:49:41.780Z,100.00
2023-05-20T04:52:09.295Z,100.00
2023-05-20T04:54:36.173Z,100.00
2023-05-20T04:57:03.649Z,100.00
2023-05-20T04:59:30.484Z,100.00
2023-05-20T05:01:57.284Z,100.00
2023-05-20T05:04:23.811Z,100.00
2023-05-20T05:06:50.693Z,100.00
2023-05-20T05:09:17.667Z,100.00
2023-05-20T05:11:44.691Z,100.00
2023-05-20T05:14:12.236Z,97.79
2023-05-20T05:16:39.345Z,97.65
2023-05-20T05:19:06.804Z,97.66
2023-05-20T05:21:35.854Z,98.66
2023-05-20T05:24:03.511Z,99.70
2023-05-20T05:26:30.327Z,99.67
2023-05-20T05:28:57.106Z,98.12
2023-05-20T05:31:23.650Z,98.05
2023-05-20T05:33:50.316Z,98.74
2023-05-20T05:36:17.267Z,99.34
2023-05-20T05:38:45.649Z,97.12
2023-05-20T05:41:12.219Z,96.49
2023-05-20T05:43:39.813Z,94.73
2023-05-20T05:46:06.846Z,93.37
2023-05-20T05:48:33.524Z,93.91
2023-05-20T05:51:00.183Z,93.22
2023-05-20T05:53:27.187Z,93.91
2023-05-20T05:55:53.818Z,94.53
2023-05-20T05:58:21.180Z,93.60
2023-05-20T06:00:50.855Z,92.63
2023-05-20T06:03:18.021Z,93.19
2023-05-20T06:05:46.717Z,92.18
2023-05-20T06:08:13.587Z,92.32
2023-05-20T06:10:40.358Z,91.15
2023-05-20T06:13:06.982Z,87.72
2023-05-20T06:15:33.925Z,86.47
2023-05-20T06:18:02.202Z,87.39
2023-05-20T06:20:30.651Z,86.56
2023-05-20T06:22:58.128Z,85.85
2023-05-20T06:25:30.045Z,83.96
2023-05-20T06:27:56.998Z,82.08
2023-05-20T06:30:24.064Z,82.28
2023-05-20T06:32:51.485Z,80.69
2023-05-20T06:35:18.056Z,79.35
2023-05-20T06:37:44.802Z,74.68
2023-05-20T06:40:11.907Z,74.09
2023-05-20T06:42:39.463Z,73.46
2023-05-20T06:45:06.512Z,74.84
2023-05-20T06:47:49.401Z,73.49
2023-05-20T06:50:16.147Z,71.74
2023-05-20T06:52:43.054Z,69.71
2023-05-20T06:55:10.952Z,68.93
2023-05-20T06:57:37.962Z,69.34
2023-05-20T07:00:05.367Z,67.54
2023-05-20T07:02:34.559Z,68.68
2023-05-20T07:05:01.098Z,68.70
2023-05-20T07:07:27.769Z,65.72
2023-05-20T07:09:54.766Z,64.10
2023-05-20T07:12:21.364Z,64.31
2023-05-20T07:14:48.063Z,64.17
2023-05-20T07:17:15.898Z,61.80
2023-05-20T07:19:43.202Z,62.68
2023-05-20T07:22:10.914Z,62.51
2023-05-20T07:24:55.606Z,60.88
2023-05-20T07:27:22.829Z,59.31
2023-05-20T07:29:49.622Z,58.42
2023-05-20T07:32:16.290Z,57.26
2023-05-20T07:34:47.361Z,57.89
2023-05-20T07:37:18.588Z,58.36
2023-05-20T07:39:45.400Z,55.63
2023-05-20T07:42:12.040Z,55.55
2023-05-20T07:44:43.429Z,54.07
2023-05-20T07:47:12.785Z,53.26
2023-05-20T07:49:41.272Z,55.20
2023-05-20T07:52:07.871Z,54.94
2023-05-20T07:54:34.629Z,55.65
2023-05-20T07:57:01.568Z,54.33
2023-05-20T07:59:29.361Z,54.42
2023-05-20T08:01:56.283Z,52.83
2023-05-20T08:04:24.103Z,51.81
2023-05-20T08:06:52.591Z,50.57
2023-05-20T08:09:31.475Z,50.23
2023-05-20T08:11:58.591Z,50.17
2023-05-20T08:14:25.230Z,50.48
2023-05-20T08:16:54.959Z,50.80
2023-05-20T08:19:22.028Z,49.53
2023-05-20T08:21:49.174Z,47.45
2023-05-20T08:24:16.422Z,47.69
2023-05-20T08:26:43.340Z,48.47
2023-05-20T08:29:09.935Z,47.38
2023-05-20T08:31:37.125Z,47.14
2023-05-20T08:34:03.937Z,46.65
2023-05-20T08:36:30.922Z,46.68
2023-05-20T08:38:57.587Z,45.09
2023-05-20T08:41:24.298Z,45.40
2023-05-20T08:43:51.239Z,44.60
2023-05-20T08:46:19.430Z,44.31
2023-05-20T08:48:46.307Z,44.45
2023-05-20T08:51:13.217Z,45.11
2023-05-20T08:53:39.894Z,44.92
2023-05-20T08:56:07.135Z,44.91
2023-05-20T08:58:33.878Z,46.38
2023-05-20T09:01:00.464Z,45.14
2023-05-20T09:03:27.449Z,41.65
2023-05-20T09:06:02.453Z,41.35
2023-05-20T09:08:30.308Z,42.48
2023-05-20T09:11:00.438Z,44.13
2023-05-20T09:13:28.370Z,42.72
2023-05-20T09:15:57.585Z,41.51
2023-05-20T09:18:26.104Z,40.66
2023-05-20T09:20:52.679Z,41.55
2023-05-20T09:23:21.346Z,41.60
2023-05-20T09:25:49.257Z,42.51
2023-05-20T09:28:17.207Z,41.43
2023-05-20T09:30:45.863Z,41.40
2023-05-20T09:33:13.711Z,40.37
2023-05-20T09:35:42.703Z,39.80
2023-05-20T09:38:09.687Z,38.84
2023-05-20T09:40:39.757Z,40.33
2023-05-20T09:43:11.852Z,40.49
2023-05-20T09:45:39.115Z,40.17
2023-05-20T09:48:05.895Z,39.87
2023-05-20T09:50:33.217Z,39.49
2023-05-20T09:53:02.289Z,39.39
2023-05-20T09:55:29.539Z,38.66
2023-05-20T09:57:56.111Z,37.40
2023-05-20T10:00:22.680Z,37.58
2023-05-20T10:02:52.699Z,38.25
2023-05-20T10:05:32.623Z,37.70
2023-05-20T10:08:37.577Z,38.26
2023-05-20T10:11:21.279Z,39.46
2023-05-20T10:14:09.725Z,39.37
2023-05-20T10:16:53.959Z,38.66
2023-05-20T10:19:29.256Z,38.64
2023-05-20T10:22:10.091Z,38.73
2023-05-20T10:24:40.249Z,38.44
2023-05-20T10:27:14.967Z,38.73
2023-05-20T10:29:46.280Z,39.24
2023-05-20T10:32:26.098Z,40.32
2023-05-20T10:34:52.881Z,39.90
2023-05-20T10:37:32.961Z,39.09
2023-05-20T10:40:05.350Z,38.23
2023-05-20T10:42:32.897Z,38.93
2023-05-20T10:44:59.965Z,39.67
2023-05-20T10:47:27.406Z,39.91
2023-05-20T10:49:54.123Z,39.78
2023-05-20T10:52:20.916Z,39.68
2023-05-20T10:54:58.386Z,39.61
2023-05-20T10:57:27.092Z,40.00
2023-05-20T10:59:53.937Z,41.04
2023-05-20T11:02:25.927Z,40.10
2023-05-20T11:04:52.796Z,40.67
2023-05-20T11:07:29.802Z,40.47
2023-05-20T11:09:59.800Z,39.58
2023-05-20T11:12:27.360Z,40.08
2023-05-20T11:14:53.998Z,39.44
2023-05-20T11:17:21.040Z,39.24
2023-05-20T11:19:47.704Z,40.19
2023-05-20T11:22:14.239Z,40.44
2023-05-20T11:24:40.913Z,40.95
2023-05-20T11:27:10.467Z,39.92
2023-05-20T11:29:38.009Z,39.87
2023-05-20T11:32:04.980Z,39.42
2023-05-20T11:34:35.742Z,40.46
2023-05-20T11:37:02.506Z,39.58
2023-05-20T11:39:29.873Z,39.36
2023-05-20T11:41:58.440Z,40.35
2023-05-20T11:44:25.556Z,40.03
2023-05-20T11:46:52.055Z,39.69
2023-05-20T11:49:18.566Z,40.85
2023-05-20T11:51:45.258Z,39.97
2023-05-20T11:54:12.113Z,38.94
2023-05-20T11:56:40.769Z,39.32
2023-05-20T11:59:09.011Z,39.88
2023-05-20T12:01:42.843Z,39.42
2023-05-20T12:04:09.775Z,39.47
2023-05-20T12:06:45.493Z,39.57
2023-05-20T12:09:13.476Z,39.91
2023-05-20T12:11:40.787Z,40.11
2023-05-20T12:14:08.346Z,39.56
2023-05-20T12:16:35.937Z,39.90
2023-05-20T12:19:02.879Z,39.98
2023-05-20T12:21:30.847Z,40.41
2023-05-20T12:24:00.530Z,39.62
2023-05-20T12:26:27.997Z,39.91
2023-05-20T12:28:56.109Z,38.85
2023-05-20T12:31:22.785Z,38.74
2023-05-20T12:33:51.783Z,39.06
2023-05-20T12:36:20.072Z,39.77
2023-05-20T12:38:50.528Z,39.84
2023-05-20T12:41:17.163Z,40.54
2023-05-20T12:43:43.899Z,39.82
2023-05-20T12:46:11.068Z,39.93
2023-05-20T12:48:37.999Z,39.39
2023-05-20T12:51:05.363Z,39.16
2023-05-20T12:53:32.229Z,39.76
2023-05-20T12:55:59.018Z,39.82
2023-05-20T12:58:26.088Z,40.50
2023-05-20T13:00:58.709Z,40.38
2023-05-20T13:03:25.673Z,39.18
2023-05-20T13:05:53.651Z,39.27
2023-05-20T13:08:22.021Z,40.27
2023-05-20T13:10:48.804Z,39.60
2023-05-20T13:13:20.869Z,38.71
2023-05-20T13:15:49.317Z,39.07
2023-05-20T13:18:18.184Z,38.51
2023-05-20T13:20:45.531Z,38.94
2023-05-20T13:23:12.968Z,38.32
2023-05-20T13:25:39.934Z,38.07
2023-05-20T13:28:08.472Z,38.43
2023-05-20T13:30:36.092Z,38.65
2023-05-20T13:33:03.584Z,38.54
2023-05-20T13:35:30.619Z,38.23
2023-05-20T13:37:57.127Z,38.00
2023-05-20T13:40:24.500Z,37.57
2023-05-20T13:42:51.167Z,38.71
2023-05-20T13:45:18.150Z,39.24
2023-05-20T13:47:44.921Z,38.75
2023-05-20T13:50:11.642Z,38.64
2023-05-20T13:52:38.812Z,38.35
2023-05-20T13:55:06.046Z,38.61
2023-05-20T13:57:33.180Z,37.82
2023-05-20T14:00:02.307Z,37.60
2023-05-20T14:02:37.472Z,38.68
2023-05-20T14:05:08.213Z,38.46
2023-05-20T14:07:35.367Z,38.59
2023-05-20T14:10:02.338Z,37.91
2023-05-20T14:12:29.704Z,37.68
2023-05-20T14:14:57.347Z,37.60
2023-05-20T14:17:25.344Z,37.69
2023-05-20T14:19:51.992Z,37.54
2023-05-20T14:22:20.044Z,37.82
2023-05-20T14:24:46.995Z,37.52
2023-05-20T14:27:14.794Z,37.81
2023-05-20T14:29:41.458Z,37.91
2023-05-20T14:32:08.560Z,38.41
2023-05-20T14:34:35.427Z,37.92
2023-05-20T14:37:07.331Z,37.75
2023-05-20T14:39:34.287Z,37.49
2023-05-20T14:42:02.541Z,37.15
2023-05-20T14:44:29.498Z,37.95
2023-05-20T14:46:56.154Z,37.53
2023-05-20T14:49:23.024Z,37.54
2023-05-20T14:51:49.664Z,37.38
2023-05-20T14:54:18.373Z,36.93
2023-05-20T14:56:44.955Z,36.90
2023-05-20T14:59:11.597Z,37.22
2023-05-20T15:01:38.157Z,37.41
2023-05-20T15:04:04.929Z,36.53
2023-05-20T15:06:32.961Z,36.74
2023-05-20T15:08:59.618Z,36.56
2023-05-20T15:11:26.184Z,36.75
2023-05-20T15:13:52.884Z,37.65
2023-05-20T15:16:19.559Z,37.13
2023-05-20T15:18:46.152Z,36.92
2023-05-20T15:21:12.684Z,36.74
2023-05-20T15:23:39.152Z,37.10
2023-05-20T15:26:05.737Z,36.84
2023-05-20T15:28:33.064Z,36.64
2023-05-20T15:30:59.561Z,36.77
2023-05-20T15:33:26.156Z,36.80
2023-05-20T15:35:52.815Z,37.17
2023-05-20T15:38:19.451Z,37.80
2023-05-20T15:40:46.769Z,37.20
2023-05-20T15:43:13.363Z,37.27
2023-05-20T15:45:39.924Z,37.34
2023-05-20T15:48:07.609Z,37.62
2023-05-20T15:50:34.989Z,38.10
2023-05-20T15:53:01.997Z,38.13
2023-05-20T15:55:28.875Z,37.87
2023-05-20T15:57:55.404Z,37.82
2023-05-20T16:00:22.165Z,38.29
2023-05-20T16:02:48.877Z,38.44
2023-05-20T16:05:15.488Z,38.23
2023-05-20T16:07:42.330Z,38.54
2023-05-20T16:10:09.644Z,38.59
2023-05-20T16:12:36.535Z,37.86
2023-05-20T16:15:03.458Z,37.63
2023-05-20T16:17:30.137Z,37.77
2023-05-20T16:19:56.751Z,37.84
2023-05-20T16:22:23.237Z,37.67
2023-05-20T16:24:49.768Z,38.15
2023-05-20T16:27:16.477Z,37.97
2023-05-20T16:29:44.615Z,38.08
2023-05-20T16:32:11.154Z,38.13
2023-05-20T16:34:37.730Z,38.39
2023-05-20T16:37:04.294Z,38.41
2023-05-20T16:39:30.772Z,38.38
2023-05-20T16:41:57.342Z,38.44
2023-05-20T16:44:23.913Z,38.49
2023-05-20T16:46:52.660Z,38.71
2023-05-20T16:49:20.810Z,38.74
2023-05-20T16:51:47.450Z,38.77
2023-05-20T16:54:13.959Z,38.88
2023-05-20T16:56:40.595Z,39.02
2023-05-20T16:59:07.141Z,38.99
2023-05-20T17:01:33.871Z,38.69
2023-05-20T17:04:00.734Z,38.89
2023-05-20T17:06:27.274Z,38.48
2023-05-20T17:08:53.790Z,38.34
2023-05-20T17:11:20.866Z,38.59
2023-05-20T17:13:47.365Z,38.76
2023-05-20T17:16:14.167Z,39.03
2023-05-20T17:18:41.186Z,39.32
2023-05-20T17:21:09.477Z,39.62
2023-05-20T17:23:35.980Z,39.83
2023-05-20T17:26:02.642Z,40.20
2023-05-20T17:28:29.316Z,40.64
2023-05-20T17:30:56.004Z,40.66
2023-05-20T17:33:23.650Z,40.69
2023-05-20T17:35:50.350Z,40.82
2023-05-20T17:38:16.915Z,40.96
2023-05-20T17:40:43.479Z,41.28
2023-05-20T17:43:10.084Z,41.34
2023-05-20T17:45:36.782Z,41.57
2023-05-20T17:48:07.769Z,41.37
2023-05-20T17:50:35.643Z,41.20
2023-05-20T17:53:02.421Z,40.76
2023-05-20T17:55:29.521Z,40.77
2023-05-20T17:57:57.281Z,40.84
2023-05-20T18:00:24.569Z,40.93
2023-05-20T18:02:55.480Z,40.83
2023-05-20T18:05:22.405Z,40.67
2023-05-20T18:07:48.920Z,40.47
2023-05-20T18:10:15.713Z,40.47
2023-05-20T18:12:42.425Z,40.48
2023-05-20T18:15:09.265Z,40.49
2023-05-20T18:17:36.346Z,40.63
2023-05-20T18:20:05.240Z,40.54
2023-05-20T18:22:31.931Z,40.66
2023-05-20T18:24:58.453Z,40.82
2023-05-20T18:27:24.934Z,40.91
2023-05-20T18:29:51.540Z,40.95
2023-05-20T18:32:18.136Z,40.88
2023-05-20T18:34:44.863Z,41.07
2023-05-20T18:37:11.356Z,41.24
2023-05-20T18:39:38.357Z,41.17
2023-05-20T18:42:05.391Z,41.34
2023-05-20T18:44:32.310Z,41.64
2023-05-20T18:46:58.918Z,41.68
2023-05-20T18:49:25.883Z,41.74
2023-05-20T18:51:52.404Z,41.70
2023-05-20T18:54:18.874Z,41.82
2023-05-20T18:56:47.747Z,41.98
2023-05-20T18:59:14.289Z,42.14
2023-05-20T19:01:40.993Z,42.23
2023-05-20T19:04:07.502Z,42.45
2023-05-20T19:06:36.750Z,42.62
2023-05-20T19:09:03.838Z,42.79
2023-05-20T19:11:30.839Z,43.02
2023-05-20T19:13:58.043Z,43.14
2023-05-20T19:16:25.571Z,43.40
2023-05-20T19:18:52.436Z,43.81
2023-05-20T19:21:22.058Z,43.90
2023-05-20T19:23:49.501Z,44.17
2023-05-20T19:26:16.925Z,44.31
2023-05-20T19:28:43.521Z,44.36
2023-05-20T19:31:10.321Z,44.56
2023-05-20T19:33:39.384Z,44.81
2023-05-20T19:36:05.944Z,44.99
2023-05-20T19:38:32.540Z,45.02
2023-05-20T19:41:02.139Z,45.26
2023-05-20T19:43:29.939Z,45.46
2023-05-20T19:45:56.712Z,45.60
2023-05-20T19:48:23.561Z,45.82
2023-05-20T19:50:50.132Z,45.90
2023-05-20T19:53:20.491Z,46.02
2023-05-20T19:55:47.162Z,46.23
2023-05-20T19:58:14.229Z,46.48
2023-05-20T20:00:40.812Z,46.51
2023-05-20T20:03:07.466Z,46.65
2023-05-20T20:05:34.616Z,46.74
2023-05-20T20:08:01.629Z,46.91
2023-05-20T20:10:30.437Z,46.88
2023-05-20T20:12:56.909Z,47.10
2023-05-20T20:15:24.455Z,47.33
2023-05-20T20:17:51.568Z,47.43
2023-05-20T20:20:18.742Z,47.64
2023-05-20T20:22:45.771Z,47.70
2023-05-20T20:25:15.415Z,47.90
2023-05-20T20:27:45.721Z,48.03
2023-05-20T20:30:13.044Z,48.21
2023-05-20T20:32:40.318Z,48.42
2023-05-20T20:35:07.483Z,48.52
2023-05-20T20:37:35.374Z,48.67
2023-05-20T20:40:12.286Z,48.82
2023-05-20T20:42:44.477Z,49.18
2023-05-20T20:45:14.582Z,49.34
2023-05-20T20:47:43.191Z,49.37
2023-05-20T20:50:10.908Z,49.57
2023-05-20T20:52:38.540Z,49.77
2023-05-20T20:55:11.938Z,50.01
2023-05-20T20:57:38.643Z,50.24
2023-05-20T21:00:25.968Z,50.30
2023-05-20T21:02:52.603Z,50.67
2023-05-20T21:05:20.967Z,50.70
2023-05-20T21:07:49.475Z,50.85
2023-05-20T21:10:17.118Z,50.88
2023-05-20T21:12:43.640Z,50.89
2023-05-20T21:15:11.941Z,50.95
2023-05-20T21:17:38.605Z,51.01
2023-05-20T21:20:06.272Z,50.87
2023-05-20T21:22:33.208Z,51.07
2023-05-20T21:24:59.763Z,51.00
2023-05-20T21:27:26.299Z,50.99
2023-05-20T21:29:53.260Z,50.96
2023-05-20T21:32:19.756Z,51.03
2023-05-20T21:34:46.286Z,51.14
2023-05-20T21:37:12.767Z,51.18
2023-05-20T21:39:39.238Z,51.40
2023-05-20T21:42:06.753Z,51.47
2023-05-20T21:44:33.291Z,51.68
2023-05-20T21:46:59.950Z,51.97
2023-05-20T21:49:26.585Z,52.31
2023-05-20T21:51:53.340Z,52.50
2023-05-20T21:54:19.868Z,52.75
2023-05-20T21:56:46.364Z,53.02
2023-05-20T21:59:13.970Z,53.43
2023-05-20T22:01:40.666Z,53.55
2023-05-20T22:04:07.375Z,54.09
2023-05-20T22:06:35.511Z,54.39
2023-05-20T22:09:02.755Z,54.67
2023-05-20T22:11:29.609Z,54.94
2023-05-20T22:13:56.617Z,55.14
2023-05-20T22:16:24.063Z,55.49
2023-05-20T22:18:53.171Z,55.73
2023-05-20T22:21:20.967Z,55.88
2023-05-20T22:23:47.665Z,56.32
2023-05-20T22:26:14.182Z,56.68
2023-05-20T22:28:40.736Z,57.10
2023-05-20T22:31:07.844Z,57.36
2023-05-20T22:33:36.352Z,57.50
2023-05-20T22:36:02.979Z,57.93
2023-05-20T22:38:30.175Z,58.17
2023-05-20T22:40:56.721Z,58.39
2023-05-20T22:43:23.972Z,58.73
2023-05-20T22:45:50.757Z,59.06
2023-05-20T22:48:18.668Z,59.49
2023-05-20T22:50:45.757Z,59.59
2023-05-20T22:53:12.326Z,59.76
2023-05-20T22:55:38.938Z,60.04
2023-05-20T22:58:07.289Z,60.32
2023-05-20T23:00:34.577Z,60.57
2023-05-20T23:03:01.127Z,60.80
2023-05-20T23:05:29.388Z,60.96
2023-05-20T23:07:57.501Z,61.17
2023-05-20T23:10:25.098Z,61.60
2023-05-20T23:12:51.852Z,61.80
2023-05-20T23:15:18.609Z,61.92
2023-05-20T23:17:45.509Z,62.30
2023-05-20T23:20:13.576Z,62.51
2023-05-20T23:22:40.766Z,62.90
2023-05-20T23:25:07.816Z,63.08
2023-05-20T23:27:35.640Z,63.30
2023-05-20T23:30:03.095Z,63.49
2023-05-20T23:32:30.697Z,63.70
2023-05-20T23:34:57.387Z,63.95
2023-05-20T23:37:23.999Z,64.05
2023-05-20T23:39:50.461Z,64.13
2023-05-20T23:42:16.955Z,64.30
2023-05-20T23:44:43.463Z,64.47
2023-05-20T23:47:12.719Z,64.51
2023-05-20T23:49:40.867Z,64.48
2023-05-20T23:52:07.417Z,64.77
2023-05-20T23:54:34.366Z,64.84
2023-05-20T23:57:00.875Z,64.88
2023-05-20T23:59:27.546Z,65.00
